createdAt,value
2018-07-12T00:01:45.262Z,11.70
2018-07-12T00:04:11.792Z,11.80
2018-07-12T00:06:38.306Z,11.60
2018-07-12T00:09:04.850Z,11.60
2018-07-12T00:11:31.349Z,11.60
2018-07-12T00:13:57.846Z,11.40
2018-07-12T00:16:24.382Z,11.40
2018-07-12T00:18:50.881Z,11.20
2018-07-12T00:21:17.415Z,11.10
2018-07-12T00:23:43.907Z,11.10
2018-07-12T00:26:10.866Z,11.20
2018-07-12T00:28:37.383Z,11.20
2018-07-12T00:31:04.353Z,11.10
2018-07-12T00:33:30.879Z,11.00
2018-07-12T00:35:57.368Z,10.90
2018-07-12T00:38:23.867Z,10.90
2018-07-12T00:40:50.400Z,10.80
2018-07-12T00:43:16.898Z,10.80
2018-07-12T00:45:43.914Z,10.80
2018-07-12T00:48:10.404Z,10.40
2018-07-12T00:50:36.905Z,10.10
2018-07-12T00:53:03.905Z,9.90
2018-07-12T00:55:30.384Z,9.90
2018-07-12T00:57:57.379Z,9.80
2018-07-12T01:00:23.885Z,9.80
2018-07-12T01:02:50.844Z,9.70
2018-07-12T01:05:17.351Z,9.70
2018-07-12T01:07:44.299Z,9.70
2018-07-12T01:10:11.295Z,9.60
2018-07-12T01:12:37.780Z,9.50
2018-07-12T01:15:04.742Z,9.70
2018-07-12T01:17:31.266Z,9.60
2018-07-12T01:19:57.761Z,9.40
2018-07-12T01:22:24.302Z,9.50
2018-07-12T01:24:50.824Z,9.50
2018-07-12T01:27:17.368Z,9.60
2018-07-12T01:29:43.894Z,9.60
2018-07-12T01:32:10.401Z,9.60
2018-07-12T01:34:36.937Z,9.60
2018-07-12T01:37:03.430Z,9.60
2018-07-12T01:39:30.391Z,9.50
2018-07-12T01:41:56.972Z,9.40
2018-07-12T01:44:23.473Z,9.40
2018-07-12T01:46:50.000Z,9.30
2018-07-12T01:49:16.487Z,9.30
2018-07-12T01:51:43.026Z,9.30
2018-07-12T01:54:09.557Z,9.20
2018-07-12T01:56:36.047Z,9.20
2018-07-12T01:59:02.587Z,9.10
2018-07-12T02:01:29.082Z,9.00
2018-07-12T02:03:56.036Z,8.90
2018-07-12T02:06:22.556Z,8.70
2018-07-12T02:08:49.048Z,8.80
2018-07-12T02:11:15.585Z,8.90
2018-07-12T02:13:42.190Z,9.00
2018-07-12T02:16:08.711Z,9.10
2018-07-12T02:18:35.253Z,9.20
2018-07-12T02:21:01.761Z,9.20
2018-07-12T02:23:28.711Z,9.20
2018-07-12T02:25:55.699Z,9.20
2018-07-12T02:28:22.190Z,9.30
2018-07-12T02:30:49.160Z,9.40
2018-07-12T02:33:15.682Z,9.30
2018-07-12T02:35:42.217Z,9.20
2018-07-12T02:38:08.715Z,9.10
2018-07-12T02:40:35.256Z,9.20
2018-07-12T02:43:02.225Z,9.30
2018-07-12T02:45:28.725Z,9.30
2018-07-12T02:47:55.251Z,9.20
2018-07-12T02:50:21.745Z,9.10
2018-07-12T02:52:48.244Z,9.10
2018-07-12T02:55:15.269Z,8.90
2018-07-12T02:57:41.761Z,8.80
2018-07-12T03:00:08.276Z,8.80
2018-07-12T03:02:34.822Z,8.80
2018-07-12T03:05:01.308Z,8.90
2018-07-12T03:07:27.826Z,9.00
2018-07-12T03:09:54.361Z,9.00
2018-07-12T03:12:20.848Z,8.90
2018-07-12T03:14:47.365Z,8.90
2018-07-12T03:17:14.335Z,8.90
2018-07-12T03:19:40.869Z,8.90
2018-07-12T03:22:07.386Z,8.80
2018-07-12T03:24:33.872Z,8.60
2018-07-12T03:27:00.386Z,8.60
2018-07-12T03:29:26.880Z,8.50
2018-07-12T03:31:53.885Z,8.50
2018-07-12T03:34:20.370Z,8.50
2018-07-12T03:36:46.889Z,8.40
2018-07-12T03:39:13.926Z,8.50
2018-07-12T03:41:40.873Z,8.70
2018-07-12T03:44:07.404Z,8.70
2018-07-12T03:46:34.367Z,8.80
2018-07-12T03:49:01.389Z,9.00
2018-07-12T03:51:27.945Z,9.00
2018-07-12T03:53:54.914Z,9.00
2018-07-12T03:56:21.442Z,9.00
2018-07-12T03:58:48.000Z,8.90
2018-07-12T04:01:15.047Z,8.90
2018-07-12T04:03:41.596Z,8.90
2018-07-12T04:06:08.485Z,8.90
2018-07-12T04:08:35.304Z,8.90
2018-07-12T04:11:01.845Z,8.90
2018-07-12T04:13:28.335Z,8.90
2018-07-12T04:15:54.855Z,8.90
2018-07-12T04:18:21.365Z,8.70
2018-07-12T04:20:47.885Z,8.60
2018-07-12T04:23:14.861Z,8.60
2018-07-12T04:25:41.386Z,8.70
2018-07-12T04:28:07.893Z,8.70
2018-07-12T04:30:34.851Z,8.70
2018-07-12T04:33:01.837Z,8.70
2018-07-12T04:35:28.338Z,8.70
2018-07-12T04:37:54.893Z,8.70
2018-07-12T04:40:21.394Z,8.70
2018-07-12T04:42:48.355Z,8.70
2018-07-12T04:45:14.922Z,8.80
2018-07-12T04:47:41.413Z,8.80
2018-07-12T04:50:07.949Z,8.80
2018-07-12T04:52:34.449Z,8.90
2018-07-12T04:55:01.007Z,9.00
2018-07-12T04:57:27.961Z,9.30
2018-07-12T04:59:54.451Z,9.30
2018-07-12T05:02:21.168Z,9.40
2018-07-12T05:04:47.658Z,9.60
2018-07-12T05:07:14.642Z,9.70
2018-07-12T05:09:41.166Z,9.70
2018-07-12T05:12:08.677Z,9.80
2018-07-12T05:14:35.213Z,9.80
2018-07-12T05:17:01.788Z,9.90
2018-07-12T05:19:28.314Z,9.80
2018-07-12T05:21:55.034Z,10.10
2018-07-12T05:24:21.577Z,10.10
2018-07-12T05:26:48.085Z,10.40
2018-07-12T05:29:14.632Z,10.50
2018-07-12T05:31:41.156Z,10.60
2018-07-12T05:34:07.649Z,10.70
2018-07-12T05:36:53.163Z,10.70
2018-07-12T05:39:21.329Z,10.90
2018-07-12T05:41:49.342Z,10.90
2018-07-12T05:44:17.298Z,11.00
2018-07-12T05:46:45.314Z,11.10
2018-07-12T05:49:13.155Z,11.10
2018-07-12T05:51:41.180Z,11.50
2018-07-12T05:54:09.131Z,11.60
2018-07-12T05:56:37.120Z,11.70
2018-07-12T05:59:05.063Z,11.70
2018-07-12T06:02:20.772Z,12.10
2018-07-12T06:04:49.106Z,12.30
2018-07-12T06:07:29.625Z,12.40
2018-07-12T06:09:57.711Z,12.50
2018-07-12T06:12:25.688Z,12.40
2018-07-12T06:14:53.651Z,12.70
2018-07-12T06:17:21.653Z,12.90
2018-07-12T06:19:49.587Z,13.00
2018-07-12T06:22:17.554Z,12.60
2018-07-12T06:24:45.558Z,13.00
2018-07-12T06:27:13.465Z,13.50
2018-07-12T06:29:41.392Z,13.50
2018-07-12T06:32:09.427Z,13.40
2018-07-12T06:34:37.405Z,13.40
2018-07-12T06:37:05.357Z,13.80
2018-07-12T06:39:33.287Z,13.60
2018-07-12T06:42:01.257Z,13.70
2018-07-12T06:44:29.234Z,13.90
2018-07-12T06:46:57.170Z,14.00
2018-07-12T06:49:25.128Z,14.10
2018-07-12T06:51:53.086Z,14.00
2018-07-12T06:54:21.086Z,14.20
2018-07-12T06:56:49.035Z,14.20
2018-07-12T06:59:17.019Z,14.50
2018-07-12T07:01:44.963Z,14.10
2018-07-12T07:04:12.944Z,14.60
2018-07-12T07:06:40.899Z,14.80
2018-07-12T07:09:09.894Z,14.80
2018-07-12T07:11:37.879Z,15.00
2018-07-12T07:14:05.943Z,15.00
2018-07-12T07:16:33.918Z,15.00
2018-07-12T07:19:01.887Z,15.10
2018-07-12T07:21:29.845Z,15.40
2018-07-12T07:23:57.811Z,15.10
2018-07-12T07:26:25.986Z,15.10
2018-07-12T07:28:53.920Z,15.20
2018-07-12T07:31:21.871Z,15.20
2018-07-12T07:33:49.959Z,15.20
2018-07-12T07:36:18.265Z,15.20
2018-07-12T07:38:46.212Z,15.30
2018-07-12T07:41:14.179Z,15.40
2018-07-12T07:43:42.253Z,15.20
2018-07-12T07:46:10.201Z,15.50
2018-07-12T07:48:38.188Z,15.80
2018-07-12T07:51:06.289Z,15.80
2018-07-12T07:53:34.260Z,16.00
2018-07-12T07:56:02.298Z,15.70
2018-07-12T07:58:30.256Z,15.60
2018-07-12T08:00:58.206Z,15.80
2018-07-12T08:03:26.223Z,16.00
2018-07-12T08:05:54.105Z,15.80
2018-07-12T08:08:22.051Z,15.90
2018-07-12T08:10:49.989Z,15.90
2018-07-12T08:13:17.993Z,16.10
2018-07-12T08:15:45.973Z,16.20
2018-07-12T08:18:13.943Z,16.30
2018-07-12T08:20:42.031Z,16.40
2018-07-12T08:23:09.977Z,16.20
2018-07-12T08:25:37.927Z,16.40
2018-07-12T08:28:26.717Z,16.70
2018-07-12T08:30:54.997Z,16.60
2018-07-12T08:33:23.675Z,16.60
2018-07-12T08:35:51.535Z,16.80
2018-07-12T08:38:19.484Z,16.90
2018-07-12T08:40:47.993Z,17.00
2018-07-12T08:43:15.920Z,16.90
2018-07-12T08:45:44.439Z,16.60
2018-07-12T08:48:12.420Z,17.20
2018-07-12T08:50:40.367Z,17.30
2018-07-12T08:53:08.573Z,17.30
2018-07-12T08:55:36.474Z,17.20
2018-07-12T08:58:04.423Z,17.60
2018-07-12T09:00:32.412Z,17.80
2018-07-12T09:03:00.440Z,17.30
2018-07-12T09:05:28.362Z,17.60
2018-07-12T09:07:56.332Z,17.50
2018-07-12T09:10:24.274Z,17.70
2018-07-12T09:12:52.229Z,17.80
2018-07-12T09:15:20.170Z,18.20
2018-07-12T09:17:48.107Z,18.00
2018-07-12T09:20:16.065Z,17.70
2018-07-12T09:22:44.062Z,17.90
2018-07-12T09:25:11.959Z,17.80
2018-07-12T09:27:39.870Z,17.70
2018-07-12T09:30:07.855Z,18.00
2018-07-12T09:32:35.785Z,18.30
2018-07-12T09:35:03.737Z,18.20
2018-07-12T09:37:31.707Z,18.00
2018-07-12T09:39:59.763Z,18.20
2018-07-12T09:42:27.693Z,18.20
2018-07-12T09:44:55.675Z,18.30
2018-07-12T09:47:23.615Z,18.20
2018-07-12T09:49:51.538Z,18.50
2018-07-12T09:52:32.550Z,18.50
2018-07-12T09:55:00.858Z,18.90
2018-07-12T09:58:22.793Z,18.50
2018-07-12T10:01:08.850Z,18.80
2018-07-12T10:03:50.424Z,19.10
2018-07-12T10:06:50.080Z,19.00
2018-07-12T10:09:36.110Z,19.60
2018-07-12T10:12:08.815Z,19.10
2018-07-12T10:15:08.368Z,19.30
2018-07-12T10:18:10.668Z,19.10
2018-07-12T10:20:38.631Z,20.00
2018-07-12T10:23:06.567Z,19.80
2018-07-12T10:25:34.472Z,19.50
2018-07-12T10:28:02.471Z,19.40
2018-07-12T10:30:30.410Z,19.80
2018-07-12T10:32:58.357Z,19.90
2018-07-12T10:35:26.310Z,19.80
2018-07-12T10:37:54.240Z,20.20
2018-07-12T10:40:22.154Z,20.30
2018-07-12T10:42:50.100Z,20.10
2018-07-12T10:45:18.007Z,19.60
2018-07-12T10:47:45.952Z,20.20
2018-07-12T10:50:13.881Z,20.00
2018-07-12T10:52:41.807Z,20.10
2018-07-12T10:55:09.787Z,20.20
2018-07-12T10:57:37.731Z,20.60
2018-07-12T11:00:08.129Z,20.20
2018-07-12T11:02:36.051Z,20.90
2018-07-12T11:05:04.004Z,21.20
2018-07-12T11:07:32.209Z,21.20
2018-07-12T11:10:00.263Z,20.70
2018-07-12T11:12:28.208Z,20.80
2018-07-12T11:14:56.161Z,21.50
2018-07-12T11:17:24.138Z,21.00
2018-07-12T11:19:52.049Z,21.40
2018-07-12T11:22:20.025Z,21.40
2018-07-12T11:24:47.976Z,21.10
2018-07-12T11:27:15.948Z,21.70
2018-07-12T11:29:58.967Z,21.90
2018-07-12T11:32:26.926Z,22.10
2018-07-12T11:34:54.921Z,21.90
2018-07-12T11:37:27.234Z,22.20
2018-07-12T11:39:55.191Z,21.80
2018-07-12T11:42:23.105Z,21.50
2018-07-12T11:44:51.176Z,21.70
2018-07-12T11:47:19.661Z,22.00
2018-07-12T11:49:47.623Z,21.70
2018-07-12T11:52:15.709Z,22.10
2018-07-12T11:54:43.695Z,22.00
2018-07-12T11:57:11.624Z,22.10
2018-07-12T11:59:39.528Z,22.30
2018-07-12T12:02:07.562Z,22.00
2018-07-12T12:04:35.459Z,22.30
2018-07-12T12:07:03.420Z,22.00
2018-07-12T12:09:31.367Z,22.10
2018-07-12T12:11:59.302Z,22.90
2018-07-12T12:14:27.221Z,22.40
2018-07-12T12:16:55.180Z,23.10
2018-07-12T12:19:23.175Z,23.20
2018-07-12T12:21:51.171Z,22.90
2018-07-12T12:24:19.113Z,22.70
2018-07-12T12:26:47.048Z,22.50
2018-07-12T12:29:15.017Z,23.00
2018-07-12T12:31:43.026Z,23.30
2018-07-12T12:34:10.946Z,23.70
2018-07-12T12:36:39.777Z,23.20
2018-07-12T12:39:07.720Z,23.10
2018-07-12T12:41:35.709Z,23.10
2018-07-12T12:44:03.626Z,23.30
2018-07-12T12:46:31.618Z,23.50
2018-07-12T12:48:59.534Z,23.90
2018-07-12T12:51:27.448Z,23.70
2018-07-12T12:53:55.419Z,23.80
2018-07-12T12:56:23.350Z,23.60
2018-07-12T12:58:51.315Z,24.40
2018-07-12T13:01:19.224Z,23.60
2018-07-12T13:03:47.219Z,23.80
2018-07-12T13:06:15.115Z,23.60
2018-07-12T13:08:43.058Z,24.50
2018-07-12T13:11:11.054Z,24.70
2018-07-12T13:13:38.984Z,24.30
2018-07-12T13:16:06.925Z,25.10
2018-07-12T13:18:34.881Z,25.50
2018-07-12T13:21:02.877Z,25.40
2018-07-12T13:23:30.808Z,25.60
2018-07-12T13:25:58.783Z,24.30
2018-07-12T13:28:26.714Z,25.30
2018-07-12T13:30:54.693Z,25.60
2018-07-12T13:33:22.644Z,24.90
2018-07-12T13:35:50.617Z,25.80
2018-07-12T13:38:18.643Z,24.90
2018-07-12T13:40:46.582Z,24.80
2018-07-12T13:43:14.544Z,25.20
2018-07-12T13:45:42.496Z,25.00
2018-07-12T13:48:10.459Z,25.70
2018-07-12T13:50:38.449Z,26.00
2018-07-12T13:53:06.845Z,26.30
2018-07-12T13:55:34.796Z,25.90
2018-07-12T13:58:02.835Z,26.80
2018-07-12T14:00:30.758Z,27.10
2018-07-12T14:02:58.728Z,27.10
2018-07-12T14:05:26.677Z,25.70
2018-07-12T14:07:54.641Z,26.70
2018-07-12T14:10:22.628Z,27.30
2018-07-12T14:12:50.757Z,26.40
2018-07-12T14:15:18.726Z,26.40
2018-07-12T14:17:46.712Z,26.70
2018-07-12T14:20:14.647Z,26.00
2018-07-12T14:22:42.592Z,26.40
2018-07-12T14:25:10.550Z,26.00
2018-07-12T14:27:38.516Z,26.40
2018-07-12T14:30:06.459Z,27.20
2018-07-12T14:32:34.363Z,26.30
2018-07-12T14:35:02.420Z,27.40
2018-07-12T14:37:30.343Z,26.90
2018-07-12T14:39:58.280Z,27.20
2018-07-12T14:42:26.240Z,27.30
2018-07-12T14:44:54.160Z,28.10
2018-07-12T14:47:22.127Z,27.20
2018-07-12T14:49:50.066Z,29.90
2018-07-12T14:52:17.991Z,33.00
2018-07-12T14:54:45.990Z,33.40
2018-07-12T14:57:13.917Z,33.00
2018-07-12T14:59:41.904Z,30.90
2018-07-12T15:02:09.834Z,30.70
2018-07-12T15:04:37.772Z,31.60
2018-07-12T15:07:05.728Z,32.40
2018-07-12T15:09:33.629Z,32.30
2018-07-12T15:12:01.609Z,31.70
2018-07-12T15:14:29.552Z,34.60
2018-07-12T15:16:57.549Z,34.20
2018-07-12T15:19:25.492Z,32.60
2018-07-12T15:21:53.363Z,33.10
2018-07-12T15:24:21.357Z,30.90
2018-07-12T15:26:49.271Z,30.20
2018-07-12T15:29:17.268Z,28.70
2018-07-12T15:31:45.357Z,28.80
2018-07-12T15:34:13.337Z,29.00
2018-07-12T15:36:41.320Z,29.30
2018-07-12T15:39:09.271Z,28.10
2018-07-12T15:41:37.685Z,29.90
2018-07-12T15:44:05.650Z,30.10
2018-07-12T15:46:33.725Z,29.40
2018-07-12T15:49:01.708Z,29.80
2018-07-12T15:51:29.717Z,29.50
2018-07-12T15:53:57.655Z,29.10
2018-07-12T15:56:25.616Z,28.20
2018-07-12T15:58:53.588Z,28.40
2018-07-12T16:01:21.545Z,29.00
2018-07-12T16:03:49.494Z,28.00
2018-07-12T16:06:17.439Z,28.80
2018-07-12T16:08:45.447Z,28.20
2018-07-12T16:11:13.381Z,28.10
2018-07-12T16:13:41.334Z,28.60
2018-07-12T16:16:09.309Z,28.70
2018-07-12T16:18:37.242Z,28.30
2018-07-12T16:21:05.260Z,27.80
2018-07-12T16:23:33.198Z,28.10
2018-07-12T16:26:01.198Z,27.80
2018-07-12T16:28:29.136Z,27.40
2018-07-12T16:30:57.104Z,28.40
2018-07-12T16:33:25.137Z,27.80
2018-07-12T16:35:53.070Z,27.80
2018-07-12T16:38:21.030Z,28.00
2018-07-12T16:40:48.960Z,27.90
2018-07-12T16:43:16.983Z,28.40
2018-07-12T16:45:44.907Z,28.00
2018-07-12T16:48:12.846Z,27.60
2018-07-12T16:50:40.876Z,28.20
2018-07-12T16:53:08.871Z,27.60
2018-07-12T16:55:36.846Z,27.70
2018-07-12T16:58:04.844Z,28.80
2018-07-12T17:00:32.819Z,29.10
2018-07-12T17:03:00.794Z,28.90
2018-07-12T17:05:28.730Z,29.30
2018-07-12T17:07:56.828Z,29.70
2018-07-12T17:10:24.765Z,28.80
2018-07-12T17:12:52.723Z,28.20
2018-07-12T17:15:20.636Z,28.30
2018-07-12T17:17:48.624Z,29.00
2018-07-12T17:20:16.546Z,29.10
2018-07-12T17:22:44.534Z,29.80
2018-07-12T17:25:12.519Z,28.40
2018-07-12T17:27:40.474Z,29.10
2018-07-12T17:30:08.445Z,27.80
2018-07-12T17:32:36.384Z,27.20
2018-07-12T17:35:04.351Z,27.20
2018-07-12T17:37:32.284Z,28.50
2018-07-12T17:40:00.212Z,29.10
2018-07-12T17:42:28.212Z,28.70
2018-07-12T17:44:56.196Z,28.50
2018-07-12T17:47:24.165Z,28.10
2018-07-12T17:49:52.052Z,27.90
2018-07-12T17:52:20.023Z,27.60
2018-07-12T17:54:47.970Z,27.10
2018-07-12T17:57:15.920Z,27.20
2018-07-12T17:59:43.833Z,27.10
2018-07-12T18:02:11.815Z,26.90
2018-07-12T18:04:39.783Z,27.00
2018-07-12T18:07:07.720Z,26.70
2018-07-12T18:09:35.668Z,26.30
2018-07-12T18:12:03.602Z,26.50
2018-07-12T18:14:31.577Z,26.20
2018-07-12T18:16:59.569Z,25.80
2018-07-12T18:19:27.481Z,25.70
2018-07-12T18:21:55.556Z,26.20
2018-07-12T18:24:23.348Z,26.00
2018-07-12T18:26:51.328Z,26.20
2018-07-12T18:29:19.248Z,26.50
2018-07-12T18:31:47.200Z,25.70
2018-07-12T18:34:15.124Z,25.60
2018-07-12T18:36:43.052Z,24.90
2018-07-12T18:39:11.025Z,24.80
2018-07-12T18:41:38.968Z,24.90
2018-07-12T18:44:06.950Z,24.60
2018-07-12T18:46:34.889Z,24.70
2018-07-12T18:49:02.881Z,24.80
2018-07-12T18:51:30.832Z,24.10
2018-07-12T18:53:58.764Z,23.90
2018-07-12T18:56:26.756Z,23.50
2018-07-12T18:58:54.678Z,23.50
2018-07-12T19:01:22.639Z,23.10
2018-07-12T19:03:50.604Z,23.60
2018-07-12T19:06:18.552Z,23.50
2018-07-12T19:08:46.491Z,22.80
2018-07-12T19:11:14.823Z,23.10
2018-07-12T19:13:42.780Z,22.90
2018-07-12T19:16:10.725Z,22.90
2018-07-12T19:18:38.676Z,22.80
2018-07-12T19:21:06.630Z,22.40
2018-07-12T19:23:34.591Z,22.00
2018-07-12T19:26:02.515Z,21.90
2018-07-12T19:28:30.436Z,21.70
2018-07-12T19:30:58.432Z,21.60
2018-07-12T19:33:26.355Z,21.40
2018-07-12T19:35:54.315Z,21.20
2018-07-12T19:38:22.233Z,21.00
2018-07-12T19:40:50.319Z,21.10
2018-07-12T19:43:18.293Z,20.80
2018-07-12T19:45:46.231Z,20.70
2018-07-12T19:48:14.201Z,20.70
2018-07-12T19:50:42.160Z,20.70
2018-07-12T19:53:10.144Z,20.80
2018-07-12T19:55:38.085Z,20.50
2018-07-12T19:58:06.020Z,20.30
2018-07-12T20:00:33.948Z,20.50
2018-07-12T20:03:01.937Z,20.50
2018-07-12T20:05:29.887Z,20.70
2018-07-12T20:07:57.813Z,20.10
2018-07-12T20:10:25.776Z,20.20
2018-07-12T20:12:53.692Z,19.90
2018-07-12T20:15:21.654Z,20.20
2018-07-12T20:17:49.578Z,19.90
2018-07-12T20:20:17.536Z,19.70
2018-07-12T20:22:45.500Z,20.20
2018-07-12T20:25:13.465Z,20.00
2018-07-12T20:27:41.375Z,19.90
2018-07-12T20:30:09.422Z,19.70
2018-07-12T20:32:37.385Z,19.30
2018-07-12T20:35:05.395Z,19.20
2018-07-12T20:37:33.414Z,19.30
2018-07-12T20:40:01.342Z,19.30
2018-07-12T20:42:29.263Z,19.00
2018-07-12T20:44:57.235Z,19.20
2018-07-12T20:47:25.139Z,19.20
2018-07-12T20:49:53.118Z,19.30
2018-07-12T20:52:21.042Z,19.20
2018-07-12T20:54:48.996Z,18.90
2018-07-12T20:57:16.965Z,18.70
2018-07-12T20:59:44.911Z,18.90
2018-07-12T21:02:12.877Z,19.00
2018-07-12T21:04:40.870Z,18.90
2018-07-12T21:07:11.359Z,18.70
2018-07-12T21:09:39.250Z,18.80
2018-07-12T21:12:07.206Z,18.90
2018-07-12T21:14:35.222Z,18.60
2018-07-12T21:17:03.171Z,18.60
2018-07-12T21:19:31.076Z,18.40
2018-07-12T21:21:59.044Z,18.60
2018-07-12T21:24:26.983Z,18.70
2018-07-12T21:26:54.948Z,18.70
2018-07-12T21:29:22.861Z,18.50
2018-07-12T21:31:50.824Z,18.60
2018-07-12T21:34:18.757Z,18.70
2018-07-12T21:36:46.693Z,18.60
2018-07-12T21:39:14.727Z,18.60
2018-07-12T21:41:42.681Z,18.60
2018-07-12T21:44:10.671Z,18.30
2018-07-12T21:46:38.601Z,18.10
2018-07-12T21:49:06.567Z,18.10
2018-07-12T21:51:34.527Z,18.10
2018-07-12T21:54:02.485Z,18.00
2018-07-12T21:56:30.446Z,17.90
2018-07-12T21:58:58.387Z,17.80
2018-07-12T22:01:26.370Z,18.00
2018-07-12T22:03:54.347Z,17.90
2018-07-12T22:07:01.813Z,17.90
2018-07-12T22:09:29.764Z,17.60
2018-07-12T22:11:57.765Z,17.60
2018-07-12T22:14:25.702Z,17.70
2018-07-12T22:16:53.638Z,17.60
2018-07-12T22:19:21.595Z,17.50
2018-07-12T22:21:49.543Z,17.70
2018-07-12T22:24:17.502Z,17.70
2018-07-12T22:26:45.500Z,17.60
2018-07-12T22:29:13.454Z,17.70
2018-07-12T22:31:41.390Z,17.70
2018-07-12T22:34:09.340Z,17.70
2018-07-12T22:36:37.304Z,17.40
2018-07-12T22:39:06.323Z,17.40
2018-07-12T22:41:34.297Z,17.30
2018-07-12T22:44:02.272Z,17.40
2018-07-12T22:46:30.252Z,17.30
2018-07-12T22:48:58.366Z,17.40
2018-07-12T22:51:26.125Z,17.40
2018-07-12T22:53:54.172Z,17.40
2018-07-12T22:56:22.100Z,17.50
2018-07-12T22:58:50.086Z,17.40
2018-07-12T23:01:18.059Z,17.20
2018-07-12T23:03:46.055Z,17.20
2018-07-12T23:06:13.999Z,17.10
2018-07-12T23:08:41.909Z,17.10
2018-07-12T23:11:09.884Z,17.00
2018-07-12T23:13:37.840Z,17.00
2018-07-12T23:16:05.824Z,17.00
2018-07-12T23:18:33.795Z,17.00
2018-07-12T23:21:01.737Z,17.00
2018-07-12T23:23:29.722Z,17.00
2018-07-12T23:25:57.703Z,16.90
2018-07-12T23:28:25.686Z,16.80
2018-07-12T23:30:53.625Z,16.60
2018-07-12T23:33:21.602Z,16.70
2018-07-12T23:35:49.568Z,16.60
2018-07-12T23:38:17.515Z,16.60
2018-07-12T23:40:45.571Z,16.70
2018-07-12T23:43:13.510Z,16.60
2018-07-12T23:45:41.494Z,16.60
2018-07-12T23:48:09.437Z,16.50
2018-07-12T23:50:37.402Z,16.40
2018-07-12T23:53:05.392Z,16.40
2018-07-12T23:55:42.230Z,16.40
2018-07-12T23:58:10.200Z,16.30
